Teeswater, Canada
Current Conditions -  °F | °C
As of 11:00 AM on Wednesday 26 Nov 2014 (Local Time) from CYVV Reporting Station
Overcast Overcast  
Wind Chill: 24°   Ceiling: 3000
Heat Index: 32°   Visibility: 15mi
Dew Point: 25°   Wind: 10mph
Humidity: 75%   Direction: 70°ENE
Pressure: 30.17"   Gusts: NA
Location:  43.98°N, 81.28°W
Report Text: CYVV 261600Z 07009KT 15SM OVC030 M00/M04 A3017 RMK SC8 SLP228
Loading
Personal Weather Stations






























Interactive Weather Map New forecast layout! Learn more

10-Day Weather Forecast

Advertisements
Track Severe Weather on mobile